Home > Products > Valid Products > MTR

000
SAUS41 KCAR 311719
MTR40B
METAR K40B 311719Z AUTO 22008G20KT 110V280 21/15 A2977 RMK AO1
     SLP077 T02140154 58003





000
SAUS41 KCAR 311657
MTRGNR
METAR KGNR 311656Z AUTO VRB04KT 23/15 A2982 RMK AO1 SLP094 T02330150





000
SAUS41 KCAR 311657
MTRGNR
METAR KGNR 311656Z AUTO VRB04KT 23/15 A2982 RMK AO1 SLP094 T02330150





000
SAUS41 KCAR 311616
MTR40B
METAR K40B 311616Z AUTO VRB04G16KT 21/16 A2978 RMK AO1 SLP081
     T02060159 55001





000
SAUS41 KCAR 311616
MTR40B
METAR K40B 311616Z AUTO VRB04G16KT 21/16 A2978 RMK AO1 SLP081
     T02060159 55001





000
SAUS41 KCAR 311558
MTRGNR
METAR KGNR 311556Z AUTO VRB04KT 23/16 A2983 RMK AO1 SLP099 T02280156





000
SAUS41 KCAR 311519
MTR40B
METAR K40B 311519Z AUTO VRB05G13KT 20/15 A2977 RMK AO1 SLP078
     T01990151 56009





000
SAUS41 KCAR 311457
MTRGNR
METAR KGNR 311456Z AUTO VRB05KT 21/16 A2984 RMK AO1 SLP104 T02060161
56014





000
SAUS41 KCAR 311421
MTR40B
METAR K40B 311421Z AUTO VRB05G19KT 21/16 A2978 RMK AO1 SLP080
     T02110160 56013





000
SAUS41 KCAR 311421
MTR40B
METAR K40B 311421Z AUTO VRB05G19KT 21/16 A2978 RMK AO1 SLP080
     T02110160 56013





000
SAUS41 KCAR 311358
MTRGNR
METAR KGNR 311356Z AUTO 00000KT 21/16 A2985 RMK AO1 SLP105 T02110156





000
SAUS41 KCAR 311358
MTRGNR
METAR KGNR 311356Z AUTO 00000KT 21/16 A2985 RMK AO1 SLP105 T02110156





000
SAUS41 KCAR 311316
MTR40B
METAR K40B 311316Z AUTO VRB05G16KT 19/16 A2978 RMK AO1 SLP082
     T01920156 57015





000
SAUS41 KCAR 311257
MTRGNR
METAR KGNR 311256Z AUTO VRB03KT 19/16 A2986 RMK AO1 SLP110 T01940156





000
SAUS41 KCAR 311219
MTR40B
METAR K40B 311219Z AUTO VRB04G14KT 18/16 A2980 RMK AO1 SLP088
     T01810160 10180 20142 57015 60001 70001





000
SAUS41 KCAR 311219
MTR40B
METAR K40B 311219Z AUTO VRB04G14KT 18/16 A2980 RMK AO1 SLP088
     T01810160 10180 20142 57015 60001 70001





000
SAUS41 KCAR 311157
MTRGNR
METAR KGNR 311156Z AUTO VRB03KT 17/14 A2989 RMK AO1 SLP119 T01720144
10172 20144 58009





000
SAUS41 KCAR 311157
MTRGNR
METAR KGNR 311156Z AUTO VRB03KT 17/14 A2989 RMK AO1 SLP119 T01720144
10172 20144 58009





000
SAUS41 KCAR 311119
MTR40B
METAR K40B 311119Z AUTO VRB06G12KT 17/15 A2982 RMK AO1 SLP094
     T01670152 56016





000
SAUS41 KCAR 311119
MTR40B
METAR K40B 311119Z AUTO VRB06G12KT 17/15 A2982 RMK AO1 SLP094
     T01670152 56016





000
SAUS41 KCAR 311058
MTRGNR
METAR KGNR 311056Z AUTO 00000KT 17/14 A2990 RMK AO1 SLP122 T01720144





000
SAUS41 KCAR 311058
MTRGNR
METAR KGNR 311056Z AUTO 00000KT 17/14 A2990 RMK AO1 SLP122 T01720144





000
SAUS41 KCAR 311016
MTR40B
METAR K40B 311016Z AUTO VRB05G11KT 16/15 A2983 RMK AO1 SLP097
     T01590148 57017 P0001





000
SAUS41 KCAR 311016
MTR40B
METAR K40B 311016Z AUTO VRB05G11KT 16/15 A2983 RMK AO1 SLP097
     T01590148 57017 P0001





000
SAUS41 KCAR 310957
MTRGNR
METAR KGNR 310956Z AUTO 00000KT 16/14 A2991 RMK AO1 SLP126 T01560139





000
SAUS41 KCAR 310919
MTR40B
METAR K40B 310919Z AUTO 00000KT 15/14 A2985 RMK AO1 SLP102
     T01460140 57016





000
SAUS41 KCAR 310858
MTRGNR
METAR KGNR 310856Z AUTO 00000KT 16/14 A2991 RMK AO1 SLP128 T01560144
56013





000
SAUS41 KCAR 310858
MTRGNR
METAR KGNR 310856Z AUTO 00000KT 16/14 A2991 RMK AO1 SLP128 T01560144
56013





000
SAUS41 KCAR 310821
MTR40B
METAR K40B 310821Z AUTO 00000KT 15/14 A2987 RMK AO1 SLP109
     T01490142 57016





000
SAUS41 KCAR 310757
MTRGNR
METAR KGNR 310756Z AUTO 00000KT 16/14 A2993 RMK AO1 SLP132 T01560144





000
SAUS41 KCAR 310716
MTR40B
METAR K40B 310716Z AUTO VRB03KT 16/15 A2988 RMK AO1 SLP112
     T01620150 57015





000
SAUS41 KCAR 310658
MTRGNR
METAR KGNR 310656Z AUTO 00000KT 16/14 A2993 RMK AO1 SLP135 T01560139





000
SAUS41 KCAR 310619
MTR40B
METAR K40B 310619Z AUTO VRB03KT 16/15 A2990 RMK AO1 SLP117
     T01630151 10183 20163 58012 60000





000
SAUS41 KCAR 310619
MTR40B
METAR K40B 310619Z AUTO VRB03KT 16/15 A2990 RMK AO1 SLP117
     T01630151 10183 20163 58012 60000





000
SAUS41 KCAR 310557
MTRGNR
METAR KGNR 310556Z AUTO 00000KT 15/14 A2995 RMK AO1 SLP141 T01500139
10189 20139 58010





000
SAUS41 KCAR 310557
MTRGNR
METAR KGNR 310556Z AUTO 00000KT 15/14 A2995 RMK AO1 SLP141 T01500139
10189 20139 58010





000
SAUS41 KCAR 310521
MTR40B
METAR K40B 310521Z AUTO VRB03G10KT 17/16 A2991 RMK AO1 SLP123
     T01680156 402400144 57009





000
SAUS41 KCAR 310521
MTR40B
METAR K40B 310521Z AUTO VRB03G10KT 17/16 A2991 RMK AO1 SLP123
     T01680156 402400144 57009





000
SAUS41 KCAR 310458
MTRGNR
METAR KGNR 310456Z AUTO 00000KT 15/14 A2997 RMK AO1 SLP147 T01500139
402220139





000
SAUS41 KCAR 310458
MTRGNR
METAR KGNR 310456Z AUTO 00000KT 15/14 A2997 RMK AO1 SLP147 T01500139
402220139





000
SAUS41 KCAR 310416
MTR40B
METAR K40B 310416Z AUTO VRB04KT 17/16 A2993 RMK AO1 SLP126
     T01690158 57008





000
SAUS41 KCAR 310416
MTR40B
METAR K40B 310416Z AUTO VRB04KT 17/16 A2993 RMK AO1 SLP126
     T01690158 57008





000
SAUS41 KCAR 310357
MTRGNR
METAR KGNR 310356Z AUTO 00000KT 16/14 A2998 RMK AO1 SLP150 T01560139





000
SAUS41 KCAR 310319
MTR40B
METAR K40B 310319Z AUTO VRB04KT 17/16 A2993 RMK AO1 SLP128
     T01710157 57008 60000





000
SAUS41 KCAR 310258
MTRGNR
METAR KGNR 310256Z AUTO 00000KT 16/14 A2998 RMK AO1 SLP151 T01610144
58002





000
SAUS41 KCAR 310219
MTR40B
METAR K40B 310219Z AUTO VRB02KT 17/16 A2994 RMK AO1 SLP132
     T01700155 50000





000
SAUS41 KCAR 310157
MTRGNR
METAR KGNR 310156Z AUTO 00000KT 17/14 A2999 RMK AO1 SLP152 T01720144





000
SAUS41 KCAR 310157
MTRGNR
METAR KGNR 310156Z AUTO 00000KT 17/14 A2999 RMK AO1 SLP152 T01720144





000
SAUS41 KCAR 310116
MTR40B
METAR K40B 310116Z AUTO VRB02KT 17/15 A2995 RMK AO1 SLP134
     T01720154 54000 P0000





000
SAUS41 KCAR 310058
MTRGNR
METAR KGNR 310056Z AUTO 00000KT 17/15 A2999 RMK AO1 SLP154 T01720150





000
SAUS41 KCAR 310058
MTRGNR
METAR KGNR 310056Z AUTO 00000KT 17/15 A2999 RMK AO1 SLP154 T01720150





000
SAUS41 KCAR 310019
MTR40B
METAR K40B 310019Z AUTO 00000KT 17/15 A2996 RMK AO1 SLP136
     T01710151 10240 20168 55000





000
SAUS41 KCAR 310019
MTR40B
METAR K40B 310019Z AUTO 00000KT 17/15 A2996 RMK AO1 SLP136
     T01710151 10240 20168 55000





000
SAUS41 KCAR 302357
MTRGNR
METAR KGNR 302356Z AUTO 00000KT 18/16 A2999 RMK AO1 SLP154 T01780156
10217 20172 55004





000
SAUS41 KCAR 302357
MTRGNR
METAR KGNR 302356Z AUTO 00000KT 18/16 A2999 RMK AO1 SLP154 T01780156
10217 20172 55004





000
SAUS41 KCAR 302321
MTR40B
METAR K40B 302321Z AUTO VRB05KT 19/15 A2994 RMK AO1 SLP132
     T01870154 57008





000
SAUS41 KCAR 302321
MTR40B
METAR K40B 302321Z AUTO VRB05KT 19/15 A2994 RMK AO1 SLP132
     T01870154 57008





000
SAUS41 KCAR 302257
MTRGNR
METAR KGNR 302256Z AUTO 00000KT 18/16 A2999 RMK AO1 SLP154 T01780161





000
SAUS41 KCAR 302257
MTRGNR
METAR KGNR 302256Z AUTO 00000KT 18/16 A2999 RMK AO1 SLP154 T01780161





000
SAUS41 KCAR 302216
MTR40B
METAR K40B 302216Z AUTO VRB02KT 22/15 A2995 RMK AO1 SLP135
     T02160151 57009





000
SAUS41 KCAR 302157
MTRGNR
METAR KGNR 302156Z AUTO 00000KT 20/16 A2999 RMK AO1 SLP155 T02000161
$





000
SAUS41 KCAR 302119
MTR40B
METAR K40B 302119Z AUTO VRB05KT 23/16 A2996 RMK AO1 SLP138
     T02290156 57009





000
SAUS41 KCAR 302119
MTR40B
METAR K40B 302119Z AUTO VRB05KT 23/16 A2996 RMK AO1 SLP138
     T02290156 57009





000
SAUS41 KCAR 302057
MTRGNR
METAR KGNR 302056Z AUTO VRB04KT 21/16 A3000 RMK AO1 SLP157 T02110161
58007





000
SAUS41 KCAR 302057
MTRGNR
METAR KGNR 302056Z AUTO VRB04KT 21/16 A3000 RMK AO1 SLP157 T02110161
58007





000
SAUS41 KCAR 302021
MTR40B
METAR K40B 302021Z AUTO VRB06G12KT 22/15 A2997 RMK AO1 SLP143
     T02220151 57010





000
SAUS41 KCAR 301958
MTRGNR
METAR KGNR 301956Z AUTO 33007KT 21/16 A3001 RMK AO1 SLP161 T02060156





000
SAUS41 KCAR 301958
MTRGNR
METAR KGNR 301956Z AUTO 33007KT 21/16 A3001 RMK AO1 SLP161 T02060156





000
SAUS41 KCAR 301916
MTR40B
METAR K40B 301916Z AUTO VRB03KT 24/15 A2998 RMK AO1 SLP147
     T02360145 57009





000
SAUS41 KCAR 301857
MTRGNR
METAR KGNR 301856Z AUTO 33009KT 20/16 A3002 RMK AO1 SLP163 T02000156





000
SAUS41 KCAR 301819
MTR40B
METAR K40B 301819Z AUTO VRB03KT 22/15 A2999 RMK AO1 SLP151
     T02200155 10226 20165 58006





000
SAUS41 KCAR 301819
MTR40B
METAR K40B 301819Z AUTO VRB03KT 22/15 A2999 RMK AO1 SLP151
     T02200155 10226 20165 58006





000
SAUS41 KCAR 301758
MTRGNR
METAR KGNR 301756Z AUTO 33008G15KT 21/16 A3002 RMK AO1 SLP164
T02110161 10222 20172 56008





000
SAUS41 KCAR 301758
MTRGNR
METAR KGNR 301756Z AUTO 33008G15KT 21/16 A3002 RMK AO1 SLP164
T02110161 10222 20172 56008





000
SAUS41 KCAR 301721
MTR40B
METAR K40B 301721Z AUTO VRB04G10KT 21/15 A3000 RMK AO1 SLP155
     T02060152 58006





000
SAUS41 KCAR 301721
MTR40B
METAR K40B 301721Z AUTO VRB04G10KT 21/15 A3000 RMK AO1 SLP155
     T02060152 58006





000
SAUS41 KCAR 301658
MTRGNR
METAR KGNR 301656Z AUTO VRB05KT 21/16 A3003 RMK AO1 SLP166 T02110156





000
SAUS41 KCAR 301658
MTRGNR
METAR KGNR 301656Z AUTO VRB05KT 21/16 A3003 RMK AO1 SLP166 T02110156





000
SAUS41 KCAR 301616
MTR40B
METAR K40B 301616Z AUTO 00000KT 20/16 A3001 RMK AO1 SLP159
     T01970156 50001





000
SAUS41 KCAR 301616
MTR40B
METAR K40B 301616Z AUTO 00000KT 20/16 A3001 RMK AO1 SLP159
     T01970156 50001





000
SAUS41 KCAR 301557
MTRGNR
METAR KGNR 301556Z AUTO 00000KT 20/16 A3004 RMK AO1 SLP170 T02000156





000
SAUS41 KCAR 301557
MTRGNR
METAR KGNR 301556Z AUTO 00000KT 20/16 A3004 RMK AO1 SLP170 T02000156





000
SAUS41 KCAR 301519
MTR40B
METAR K40B 301519Z AUTO 20006G11KT 170V240 20/16 A3001 RMK AO1
     SLP159 T01990162 50001





000
SAUS41 KCAR 301457
MTRGNR
METAR KGNR 301456Z AUTO 00000KT 20/15 A3005 RMK AO1 SLP173 T02000150
51006





000
SAUS41 KCAR 301421
MTR40B
METAR K40B 301421Z AUTO VRB03KT 17/16 A3002 RMK AO1 SLP162
     T01730156 52006





000
SAUS41 KCAR 301358
MTRGNR
METAR KGNR 301356Z AUTO VRB04KT 19/14 A3005 RMK AO1 SLP174 T01890144





000
SAUS41 KCAR 301316
MTR40B
METAR K40B 301316Z AUTO VRB03KT 17/15 A3000 RMK AO1 SLP158
     T01710154 52007





000
SAUS41 KCAR 301257
MTRGNR
METAR KGNR 301256Z AUTO 00000KT 18/13 A3003 RMK AO1 SLP171 T01780133





000
SAUS41 KCAR 301219
MTR40B
METAR K40B 301219Z AUTO VRB02KT 17/15 A3000 RMK AO1 SLP157
     T01650152 10165 20144 52008 P0000 60003 70006





000
SAUS41 KCAR 301219
MTR40B
METAR K40B 301219Z AUTO VRB02KT 17/15 A3000 RMK AO1 SLP157
     T01650152 10165 20144 52008 P0000 60003 70006





000
SAUS41 KCAR 301157
MTRGNR
METAR KGNR 301156Z AUTO 00000KT 18/13 A3003 RMK AO1 SLP169 T01780133
10178 20139 53003





000
SAUS41 KCAR 301157
MTRGNR
METAR KGNR 301156Z AUTO 00000KT 18/13 A3003 RMK AO1 SLP169 T01780133
10178 20139 53003





000
SAUS41 KCAR 301119
MTR40B
METAR K40B 301119Z AUTO 00000KT 16/15 A3000 RMK AO1 SLP155
     T01550145 53005





000
SAUS41 KCAR 301119
MTR40B
METAR K40B 301119Z AUTO 00000KT 16/15 A3000 RMK AO1 SLP155
     T01550145 53005





000
SAUS41 KCAR 301057
MTRGNR
METAR KGNR 301056Z AUTO 00000KT 16/14 A3002 RMK AO1 SLP167 T01610139





000
SAUS41 KCAR 301016
MTR40B
METAR K40B 301016Z AUTO VRB02KT 15/14 A2998 RMK AO1 SLP151
     T01460139 56004





000
SAUS41 KCAR 301016
MTR40B
METAR K40B 301016Z AUTO VRB02KT 15/14 A2998 RMK AO1 SLP151
     T01460139 56004





000
SAUS41 KCAR 300957
MTRGNR
METAR KGNR 300956Z AUTO 00000KT 15/13 A3002 RMK AO1 SLP167 T01500133





000
SAUS41 KCAR 300919
MTR40B
METAR K40B 300919Z AUTO VRB03KT 15/14 A2998 RMK AO1 SLP148
     T01500140 57009 P0001 60003





000
SAUS41 KCAR 300858
MTRGNR
METAR KGNR 300856Z AUTO 00000KT 15/13 A3002 RMK AO1 SLP166 T01500128
55004





000
SAUS41 KCAR 300858
MTRGNR
METAR KGNR 300856Z AUTO 00000KT 15/13 A3002 RMK AO1 SLP166 T01500128
55004





000
SAUS41 KCAR 300821
MTR40B
METAR K40B 300821Z AUTO 00000KT 15/14 A2998 RMK AO1 SLP149
     T01510141 58010





000
SAUS41 KCAR 300757
MTRGNR
METAR KGNR 300756Z AUTO 00000KT 16/13 A3002 RMK AO1 SLP164 T01610128





000
SAUS41 KCAR 300757
MTRGNR
METAR KGNR 300756Z AUTO 00000KT 16/13 A3002 RMK AO1 SLP164 T01610128





000
SAUS41 KCAR 300716
MTR40B
METAR K40B 300716Z AUTO VRB03KT 15/14 A2999 RMK AO1 SLP152
     T01530143 57007 P0002





000
SAUS41 KCAR 300658
MTRGNR
METAR KGNR 300656Z AUTO 00000KT 16/13 A3002 RMK AO1 SLP164 T01610133





000
SAUS41 KCAR 300658
MTRGNR
METAR KGNR 300656Z AUTO 00000KT 16/13 A3002 RMK AO1 SLP164 T01610133





000
SAUS41 KCAR 300619
MTR40B
METAR K40B 300619Z AUTO 00000KT 15/15 A3000 RMK AO1 SLP155
     T01510145 10171 20149 57007 P0000 60003





000
SAUS41 KCAR 300619
MTR40B
METAR K40B 300619Z AUTO 00000KT 15/15 A3000 RMK AO1 SLP155
     T01510145 10171 20149 57007 P0000 60003





000
SAUS41 KCAR 300557
MTRGNR
METAR KGNR 300556Z AUTO 00000KT 17/12 A3003 RMK AO1 SLP168 T01670122
10172 20150 58006





000
SAUS41 KCAR 300521
MTR40B
METAR K40B 300521Z AUTO 00000KT 15/14 A3001 RMK AO1 SLP157
     T01540144 402170108 57006 P0001





000
SAUS41 KCAR 300457
MTRGNR
METAR KGNR 300456Z AUTO 00000KT 16/12 A3005 RMK AO1 SLP174 T01560122
402110133





000
SAUS41 KCAR 300416
MTR40B
METAR K40B 300416Z AUTO VRB03KT 16/13 A3002 RMK AO1 SLP158
     T01610134 57008 P0001





000
SAUS41 KCAR 300416
MTR40B
METAR K40B 300416Z AUTO VRB03KT 16/13 A3002 RMK AO1 SLP158
     T01610134 57008 P0001





000
SAUS41 KCAR 300357
MTRGNR
METAR KGNR 300356Z AUTO 00000KT 16/13 A3006 RMK AO1 SLP177 T01560133





000
SAUS41 KCAR 300319
MTR40B
METAR K40B 300319Z AUTO VRB03KT 17/13 A3003 RMK AO1 SLP161
     T01660131 58002 60000





000
SAUS41 KCAR 300319
MTR40B
METAR K40B 300319Z AUTO VRB03KT 17/13 A3003 RMK AO1 SLP161
     T01660131 58002 60000





000
SAUS41 KCAR 300258
MTRGNR
METAR KGNR 300256Z AUTO 00000KT 16/13 A3005 RMK AO1 SLP175 T01610128
58005





000
SAUS41 KCAR 300221
MTR40B
METAR K40B 300221Z AUTO 00000KT 16/13 A3003 RMK AO1 SLP162
     T01580129 50001





000
SAUS41 KCAR 300157
MTRGNR
METAR KGNR 300156Z AUTO 00000KT 17/13 A3006 RMK AO1 SLP179 T01670128





000
SAUS41 KCAR 300157
MTRGNR
METAR KGNR 300156Z AUTO 00000KT 17/13 A3006 RMK AO1 SLP179 T01670128





000
SAUS41 KCAR 300116
MTR40B
METAR K40B 300116Z AUTO 00000KT 17/13 A3004 RMK AO1 SLP165
     T01670128 52002 P0000





000
SAUS41 KCAR 300116
MTR40B
METAR K40B 300116Z AUTO 00000KT 17/13 A3004 RMK AO1 SLP165
     T01670128 52002 P0000





000
SAUS41 KCAR 300057
MTRGNR
METAR KGNR 300056Z AUTO 00000KT 17/14 A3007 RMK AO1 SLP184 T01670139





000
SAUS41 KCAR 300057
MTRGNR
METAR KGNR 300056Z AUTO 00000KT 17/14 A3007 RMK AO1 SLP184 T01670139





000
SAUS41 KCAR 300019
MTR40B
METAR K40B 300019Z AUTO VRB02KT 17/13 A3003 RMK AO1 SLP163
     T01690129 10217 20165 54001





000
SAUS41 KCAR 300019
MTR40B
METAR K40B 300019Z AUTO VRB02KT 17/13 A3003 RMK AO1 SLP163
     T01690129 10217 20165 54001





000
SAUS41 KCAR 292357
MTRGNR
METAR KGNR 292356Z AUTO 00000KT 17/13 A3006 RMK AO1 SLP182 T01670133
10211 20167 55001





000
SAUS41 KCAR 292357
MTRGNR
METAR KGNR 292356Z AUTO 00000KT 17/13 A3006 RMK AO1 SLP182 T01670133
10211 20167 55001





000
SAUS41 KCAR 292321
MTR40B
METAR K40B 292321Z AUTO VRB02KT 18/13 A3003 RMK AO1 SLP164
     T01760130 57003





000
SAUS41 KCAR 292321
MTR40B
METAR K40B 292321Z AUTO VRB02KT 18/13 A3003 RMK AO1 SLP164
     T01760130 57003





000
SAUS41 KCAR 292258
MTRGNR
METAR KGNR 292256Z AUTO 00000KT 17/14 A3006 RMK AO1 SLP179 T01720139





000
SAUS41 KCAR 292258
MTRGNR
METAR KGNR 292256Z AUTO 00000KT 17/14 A3006 RMK AO1 SLP179 T01720139





000
SAUS41 KCAR 292216
MTR40B
METAR K40B 292216Z AUTO 00000KT 19/13 A3003 RMK AO1 SLP165
     T01920134 57003





000
SAUS41 KCAR 292216
MTR40B
METAR K40B 292216Z AUTO 00000KT 19/13 A3003 RMK AO1 SLP165
     T01920134 57003





000
SAUS41 KCAR 292157
MTRGNR
METAR KGNR 292156Z AUTO 34004KT 19/13 A3006 RMK AO1 SLP180 T01890133





000
SAUS41 KCAR 292119
MTR40B
METAR K40B 292119Z AUTO VRB04G13KT 20/12 A3004 RMK AO1 SLP167
     T02010124 56008





000
SAUS41 KCAR 292057
MTRGNR
METAR KGNR 292056Z AUTO 00000KT 19/14 A3007 RMK AO1 SLP182 T01940139
56012





000
SAUS41 KCAR 292019
MTR40B
METAR K40B 292019Z AUTO VRB05G14KT 21/13 A3004 RMK AO1 SLP169
     T02060134 56012





000
SAUS41 KCAR 291958
MTRGNR
METAR KGNR 291956Z AUTO 00000KT 21/13 A3008 RMK AO1 SLP184 T02060133





000
SAUS41 KCAR 291916
MTR40B
METAR K40B 291916Z AUTO 20008G15KT 160V300 21/14 A3004 RMK AO1
     SLP170 T02130136 57017





000
SAUS41 KCAR 291857
MTRGNR
METAR KGNR 291856Z AUTO 00000KT 20/13 A3009 RMK AO1 SLP190 T02000128





000
SAUS41 KCAR 291819
MTR40B
METAR K40B 291819Z AUTO 20010G15KT 21/13 A3006 RMK AO1 SLP179
     T02070130 10216 20143 57015





000
SAUS41 KCAR 291819
MTR40B
METAR K40B 291819Z AUTO 20010G15KT 21/13 A3006 RMK AO1 SLP179
     T02070130 10216 20143 57015





000
SAUS41 KCAR 291758
MTRGNR
METAR KGNR 291756Z AUTO VRB03KT 20/13 A3010 RMK AO1 SLP193 T02000128
10206 20156 58015





000
SAUS41 KCAR 291758
MTRGNR
METAR KGNR 291756Z AUTO VRB03KT 20/13 A3010 RMK AO1 SLP193 T02000128
10206 20156 58015





000
SAUS41 KCAR 291721
MTR40B
METAR K40B 291721Z AUTO 20008G15KT 170V300 21/13 A3008 RMK AO1
     SLP185 T02060130 57017





000
SAUS41 KCAR 291657
MTRGNR
METAR KGNR 291656Z AUTO 00000KT 20/13 A3012 RMK AO1 SLP197 T02000128





000
SAUS41 KCAR 291616
MTR40B
METAR K40B 291616Z AUTO 21010G19KT 180V320 20/13 A3010 RMK AO1
     SLP192 T01970126 58012





000
SAUS41 KCAR 291558
MTRGNR
METAR KGNR 291556Z AUTO 32007KT 270V340 19/13 A3014 RMK AO1 SLP205
T01940128





000
SAUS41 KCAR 291558
MTRGNR
METAR KGNR 291556Z AUTO 32007KT 270V340 19/13 A3014 RMK AO1 SLP205
T01940128





000
SAUS41 KCAR 291519
MTR40B
METAR K40B 291519Z AUTO 19011G15KT 19/13 A3011 RMK AO1 SLP198
     T01930134 58006





000
SAUS41 KCAR 291457
MTRGNR
METAR KGNR 291456Z AUTO VRB03KT 19/12 A3015 RMK AO1 SLP209 T01890122
58005





000
SAUS41 KCAR 291419
MTR40B
METAR K40B 291419Z AUTO VRB03KT 18/13 A3013 RMK AO1 SLP205
     T01820133 51003





000
SAUS41 KCAR 291419
MTR40B
METAR K40B 291419Z AUTO VRB03KT 18/13 A3013 RMK AO1 SLP205
     T01820133 51003





000
SAUS41 KCAR 291358
MTRGNR
METAR KGNR 291356Z AUTO 00000KT 18/13 A3016 RMK AO1 SLP214 T01830128





000
SAUS41 KCAR 291358
MTRGNR
METAR KGNR 291356Z AUTO 00000KT 18/13 A3016 RMK AO1 SLP214 T01830128





000
SAUS41 KCAR 291316
MTR40B
METAR K40B 291316Z AUTO 00000KT 16/13 A3013 RMK AO1 SLP205
     T01600128 51009





000
SAUS41 KCAR 291316
MTR40B
METAR K40B 291316Z AUTO 00000KT 16/13 A3013 RMK AO1 SLP205
     T01600128 51009





000
SAUS41 KCAR 291257
MTRGNR
METAR KGNR 291256Z AUTO 00000KT 16/13 A3016 RMK AO1 SLP213 T01610128





000
SAUS41 KCAR 291257
MTRGNR
METAR KGNR 291256Z AUTO 00000KT 16/13 A3016 RMK AO1 SLP213 T01610128





000
SAUS41 KCAR 291221
MTR40B
METAR K40B 291221Z AUTO VRB02KT 14/13 A3013 RMK AO1 SLP205
     T01430128 10143 20108 52012 P0001 60001 70002





000
SAUS41 KCAR 291221
MTR40B
METAR K40B 291221Z AUTO VRB02KT 14/13 A3013 RMK AO1 SLP205
     T01430128 10143 20108 52012 P0001 60001 70002





000
SAUS41 KCAR 291157
MTRGNR
METAR KGNR 291156Z AUTO 00000KT 16/12 A3016 RMK AO1 SLP215 T01560122
10156 20133 51016





000
SAUS41 KCAR 291157
MTRGNR
METAR KGNR 291156Z AUTO 00000KT 16/12 A3016 RMK AO1 SLP215 T01560122
10156 20133 51016





000
SAUS41 KCAR 291121
MTR40B
METAR K40B 291121Z AUTO VRB02KT 13/12 A3012 RMK AO1 SLP201
     T01300122 53007





000
SAUS41 KCAR 291121
MTR40B
METAR K40B 291121Z AUTO VRB02KT 13/12 A3012 RMK AO1 SLP201
     T01300122 53007





000
SAUS41 KCAR 291057
MTRGNR
METAR KGNR 291056Z AUTO 00000KT 14/12 A3015 RMK AO1 SLP211 T01390122





000
SAUS41 KCAR 291016
MTR40B
METAR K40B 291016Z AUTO 00000KT 12/11 A3010 RMK AO1 SLP195
     T01160112 54001





000
SAUS41 KCAR 290957
MTRGNR
METAR KGNR 290956Z AUTO 00000KT 14/12 A3013 RMK AO1 SLP203 T01390117





000
SAUS41 KCAR 290957
MTRGNR
METAR KGNR 290956Z AUTO 00000KT 14/12 A3013 RMK AO1 SLP203 T01390117





000
SAUS41 KCAR 290919
MTR40B
METAR K40B 290919Z AUTO 00000KT 12/12 A3009 RMK AO1 SLP191
     T01220116 57002





000
SAUS41 KCAR 290858
MTRGNR
METAR KGNR 290856Z AUTO 31003KT 14/12 A3011 RMK AO1 SLP196 T01440122
58004





000
SAUS41 KCAR 290819
MTR40B
METAR K40B 290819Z AUTO 00000KT 12/12 A3010 RMK AO1 SLP192
     T01230119 56006





000
SAUS41 KCAR 290757
MTRGNR
METAR KGNR 290756Z AUTO 32006KT 14/12 A3012 RMK AO1 SLP198 T01440117





000
SAUS41 KCAR 290716
MTR40B
METAR K40B 290716Z AUTO VRB02KT 11/11 A3010 RMK AO1 SLP190
     T01150111 57007





000
SAUS41 KCAR 290658
MTRGNR
METAR KGNR 290656Z AUTO 33005KT 14/12 A3012 RMK AO1 SLP199 T01440117





000
SAUS41 KCAR 290658
MTRGNR
METAR KGNR 290656Z AUTO 33005KT 14/12 A3012 RMK AO1 SLP199 T01440117





000
SAUS41 KCAR 290619
MTR40B
METAR K40B 290619Z AUTO 00000KT 11/11 A3010 RMK AO1 SLP189
     T01120107 10151 20110 58003 60001





000
SAUS41 KCAR 290619
MTR40B
METAR K40B 290619Z AUTO 00000KT 11/11 A3010 RMK AO1 SLP189
     T01120107 10151 20110 58003 60001





000
SAUS41 KCAR 290557
MTRGNR
METAR KGNR 290556Z AUTO 33007KT 15/12 A3013 RMK AO1 SLP200 T01500117
10167 20150 58001





000
SAUS41 KCAR 290519
MTR40B
METAR K40B 290519Z AUTO 00000KT 11/11 A3012 RMK AO1 SLP194
     T01140110 402340087 52003





000
SAUS41 KCAR 290519
MTR40B
METAR K40B 290519Z AUTO 00000KT 11/11 A3012 RMK AO1 SLP194
     T01140110 402340087 52003





000
SAUS41 KCAR 290458
MTRGNR
METAR KGNR 290456Z AUTO VRB06KT 16/12 A3013 RMK AO1 SLP203 T01560117
402170122





000
SAUS41 KCAR 290416
MTR40B
METAR K40B 290416Z AUTO 00000KT 12/11 A3012 RMK AO1 SLP193
     T01180110 52006 P0000





000
SAUS41 KCAR 290357
MTRGNR
METAR KGNR 290356Z AUTO VRB03KT 16/12 A3014 RMK AO1 SLP206 T01560117





000
SAUS41 KCAR 290357
MTRGNR
METAR KGNR 290356Z AUTO VRB03KT 16/12 A3014 RMK AO1 SLP206 T01560117





000
SAUS41 KCAR 290321
MTR40B
METAR K40B 290321Z AUTO VRB02KT 13/12 A3011 RMK AO1 SLP189
     T01290120 52006 60000





000
SAUS41 KCAR 290258
MTRGNR
METAR KGNR 290256Z AUTO VRB03KT 16/12 A3013 RMK AO1 SLP204 T01560122
51009





000
SAUS41 KCAR 290258
MTRGNR
METAR KGNR 290256Z AUTO VRB03KT 16/12 A3013 RMK AO1 SLP204 T01560122
51009





000
SAUS41 KCAR 290221
MTR40B
METAR K40B 290221Z AUTO 00000KT 13/12 A3011 RMK AO1 SLP189
     T01320123 52011 P0000





000
SAUS41 KCAR 290157
MTRGNR
METAR KGNR 290156Z AUTO 31004KT 16/12 A3012 RMK AO1 SLP201 T01610122





000
SAUS41 KCAR 290116
MTR40B
METAR K40B 290116Z AUTO 00000KT 13/13 A3010 RMK AO1 SLP185
     T01330125 52012





000
SAUS41 KCAR 290058
MTRGNR
METAR KGNR 290056Z AUTO 31004KT 17/12 A3012 RMK AO1 SLP199 T01670122





000
SAUS41 KCAR 290058
MTRGNR
METAR KGNR 290056Z AUTO 31004KT 17/12 A3012 RMK AO1 SLP199 T01670122





000
SAUS41 KCAR 290019
MTR40B
METAR K40B 290019Z AUTO 00000KT 15/13 A3009 RMK AO1 SLP181
     T01490133 10234 20150 52010 P0000 60000





000
SAUS41 KCAR 290019
MTR40B
METAR K40B 290019Z AUTO 00000KT 15/13 A3009 RMK AO1 SLP181
     T01490133 10234 20150 52010 P0000 60000





000
SAUS41 KCAR 282357
MTRGNR
METAR KGNR 282356Z AUTO VRB04KT 16/13 A3010 RMK AO1 SLP195 T01610128
10217 20161 53007





000
SAUS41 KCAR 282357
MTRGNR
METAR KGNR 282356Z AUTO VRB04KT 16/13 A3010 RMK AO1 SLP195 T01610128
10217 20161 53007





000
SAUS41 KCAR 282319
MTR40B
METAR K40B 282319Z AUTO 00000KT 16/14 A3007 RMK AO1 SLP177
     T01640139 52006





000
SAUS41 KCAR 282319
MTR40B
METAR K40B 282319Z AUTO 00000KT 16/14 A3007 RMK AO1 SLP177
     T01640139 52006





000
SAUS41 KCAR 282258
MTRGNR
METAR KGNR 282256Z AUTO 00000KT 17/14 A3009 RMK AO1 SLP191 T01670139





000
SAUS41 KCAR 282216
MTR40B
METAR K40B 282216Z AUTO 00000KT 20/12 A3006 RMK AO1 SLP174
     T02030122 55000





000
SAUS41 KCAR 282216
MTR40B
METAR K40B 282216Z AUTO 00000KT 20/12 A3006 RMK AO1 SLP174
     T02030122 55000





000
SAUS41 KCAR 282157
MTRGNR
METAR KGNR 282156Z AUTO VRB03KT 19/13 A3008 RMK AO1 SLP188 T01940128





000
SAUS41 KCAR 282119
MTR40B
METAR K40B 282119Z AUTO VRB03KT 22/11 A3005 RMK AO1 SLP173
     T02220112 57004





000
SAUS41 KCAR 282057
MTRGNR
METAR KGNR 282056Z AUTO VRB03KT 21/12 A3008 RMK AO1 SLP186 T02110122
58004





000
SAUS41 KCAR 282020
MTR40B
METAR K40B 282020Z AUTO VRB04G11KT 23/10 A3006 RMK AO1 SLP175
     T02280103 57008





000
SAUS41 KCAR 281958
MTRGNR
METAR KGNR 281956Z AUTO 33004KT 22/12 A3009 RMK AO1 SLP188 T02170117





000
SAUS41 KCAR 281916
MTR40B
METAR K40B 281916Z AUTO VRB04KT 22/09 A3006 RMK AO1 SLP178
     T02250092 57013





000
SAUS41 KCAR 281857
MTRGNR
METAR KGNR 281856Z AUTO 33009KT 21/11 A3009 RMK AO1 SLP189 T02110106





000
SAUS41 KCAR 281819
MTR40B
METAR K40B 281819Z AUTO VRB03KT 23/10 A3007 RMK AO1 SLP182
     T02300096 10230 20131 57013





000
SAUS41 KCAR 281819
MTR40B
METAR K40B 281819Z AUTO VRB03KT 23/10 A3007 RMK AO1 SLP182
     T02300096 10230 20131 57013





000
SAUS41 KCAR 281758
MTRGNR
METAR KGNR 281756Z AUTO 35009KT 21/12 A3009 RMK AO1 SLP190 T02110117
10211 20144 58006





000
SAUS41 KCAR 281758
MTRGNR
METAR KGNR 281756Z AUTO 35009KT 21/12 A3009 RMK AO1 SLP190 T02110117
10211 20144 58006





    US Dept of Commerce
    National Oceanic and Atmospheric Administration
    National Weather Service
    1325 East West Highway
    Silver Spring, MD 20910
    Page Author: NWS Internet Services Team
Disclaimer
Information Quality
Credits
Glossary
Privacy Policy
Freedom of Information Act (FOIA)
About Us
Career Opportunities